sensor_id;sensor_type;location;lat;lon;timestamp;temperature;humidity
55634;DHT22;41504;53.162;6.788;2023-05-16T00:01:52;9.10;92.20
55634;DHT22;41504;53.162;6.788;2023-05-16T00:04:18;9.10;92.20
55634;DHT22;41504;53.162;6.788;2023-05-16T00:06:44;9.00;92.10
55634;DHT22;41504;53.162;6.788;2023-05-16T00:09:10;8.90;92.20
55634;DHT22;41504;53.162;6.788;2023-05-16T00:11:36;9.00;92.40
55634;DHT22;41504;53.162;6.788;2023-05-16T00:14:01;8.90;92.30
55634;DHT22;41504;53.162;6.788;2023-05-16T00:16:27;8.80;92.50
55634;DHT22;41504;53.162;6.788;2023-05-16T00:18:54;8.80;92.70
55634;DHT22;41504;53.162;6.788;2023-05-16T00:21:22;8.80;92.70
55634;DHT22;41504;53.162;6.788;2023-05-16T00:23:49;8.80;92.30
55634;DHT22;41504;53.162;6.788;2023-05-16T00:26:15;8.80;92.30
55634;DHT22;41504;53.162;6.788;2023-05-16T00:28:41;8.70;92.20
55634;DHT22;41504;53.162;6.788;2023-05-16T00:31:07;8.70;92.20
55634;DHT22;41504;53.162;6.788;2023-05-16T00:33:33;8.70;92.10
55634;DHT22;41504;53.162;6.788;2023-05-16T00:35:58;8.60;92.20
55634;DHT22;41504;53.162;6.788;2023-05-16T00:38:24;8.70;92.00
55634;DHT22;41504;53.162;6.788;2023-05-16T00:40:50;8.70;92.00
55634;DHT22;41504;53.162;6.788;2023-05-16T00:43:16;8.60;92.10
55634;DHT22;41504;53.162;6.788;2023-05-16T00:45:42;8.60;91.80
55634;DHT22;41504;53.162;6.788;2023-05-16T00:48:09;8.60;91.90
55634;DHT22;41504;53.162;6.788;2023-05-16T00:50:35;8.60;91.80
55634;DHT22;41504;53.162;6.788;2023-05-16T00:53:01;8.50;91.90
55634;DHT22;41504;53.162;6.788;2023-05-16T00:55:27;8.50;91.70
55634;DHT22;41504;53.162;6.788;2023-05-16T00:57:52;8.50;91.80
55634;DHT22;41504;53.162;6.788;2023-05-16T01:00:19;8.50;91.80
55634;DHT22;41504;53.162;6.788;2023-05-16T01:02:45;8.50;91.90
55634;DHT22;41504;53.162;6.788;2023-05-16T01:05:11;8.50;91.90
55634;DHT22;41504;53.162;6.788;2023-05-16T01:07:37;8.40;92.00
55634;DHT22;41504;53.162;6.788;2023-05-16T01:10:04;8.30;92.00
55634;DHT22;41504;53.162;6.788;2023-05-16T01:15:12;8.40;91.90
55634;DHT22;41504;53.162;6.788;2023-05-16T01:28:13;8.30;91.30
55634;DHT22;41504;53.162;6.788;2023-05-16T01:30:40;8.20;91.40
55634;DHT22;41504;53.162;6.788;2023-05-16T01:33:06;8.20;91.40
55634;DHT22;41504;53.162;6.788;2023-05-16T01:35:33;8.20;91.60
55634;DHT22;41504;53.162;6.788;2023-05-16T01:38:17;8.10;91.60
55634;DHT22;41504;53.162;6.788;2023-05-16T01:40:53;8.10;91.50
55634;DHT22;41504;53.162;6.788;2023-05-16T01:43:28;8.10;91.60
55634;DHT22;41504;53.162;6.788;2023-05-16T01:46:01;8.00;91.70
55634;DHT22;41504;53.162;6.788;2023-05-16T01:48:34;8.00;92.00
55634;DHT22;41504;53.162;6.788;2023-05-16T01:51:01;8.00;92.10
55634;DHT22;41504;53.162;6.788;2023-05-16T01:53:35;8.00;91.80
55634;DHT22;41504;53.162;6.788;2023-05-16T01:56:01;8.00;92.10
55634;DHT22;41504;53.162;6.788;2023-05-16T01:58:32;8.00;91.90
55634;DHT22;41504;53.162;6.788;2023-05-16T02:01:03;8.00;91.80
55634;DHT22;41504;53.162;6.788;2023-05-16T02:03:30;8.00;91.80
55634;DHT22;41504;53.162;6.788;2023-05-16T02:05:56;8.00;92.00
55634;DHT22;41504;53.162;6.788;2023-05-16T02:08:23;8.00;92.00
55634;DHT22;41504;53.162;6.788;2023-05-16T02:10:51;8.00;92.00
55634;DHT22;41504;53.162;6.788;2023-05-16T02:13:17;8.00;92.00
55634;DHT22;41504;53.162;6.788;2023-05-16T02:15:43;8.10;91.80
55634;DHT22;41504;53.162;6.788;2023-05-16T02:18:08;8.00;91.80
55634;DHT22;41504;53.162;6.788;2023-05-16T02:20:35;8.10;91.80
55634;DHT22;41504;53.162;6.788;2023-05-16T02:23:00;8.10;91.70
55634;DHT22;41504;53.162;6.788;2023-05-16T02:25:28;8.00;91.80
55634;DHT22;41504;53.162;6.788;2023-05-16T02:27:54;8.00;91.90
55634;DHT22;41504;53.162;6.788;2023-05-16T02:30:19;8.00;91.90
55634;DHT22;41504;53.162;6.788;2023-05-16T02:32:45;8.00;92.00
55634;DHT22;41504;53.162;6.788;2023-05-16T02:35:11;8.00;92.00
55634;DHT22;41504;53.162;6.788;2023-05-16T02:37:37;8.00;92.10
55634;DHT22;41504;53.162;6.788;2023-05-16T02:40:03;8.00;92.10
55634;DHT22;41504;53.162;6.788;2023-05-16T02:42:30;8.00;92.20
55634;DHT22;41504;53.162;6.788;2023-05-16T02:44:56;8.00;92.10
55634;DHT22;41504;53.162;6.788;2023-05-16T02:47:22;8.00;92.10
55634;DHT22;41504;53.162;6.788;2023-05-16T02:49:48;8.00;92.10
55634;DHT22;41504;53.162;6.788;2023-05-16T02:52:13;8.10;92.10
55634;DHT22;41504;53.162;6.788;2023-05-16T02:54:39;8.00;91.90
55634;DHT22;41504;53.162;6.788;2023-05-16T02:57:05;8.10;91.80
55634;DHT22;41504;53.162;6.788;2023-05-16T02:59:30;8.10;91.80
55634;DHT22;41504;53.162;6.788;2023-05-16T03:01:56;8.00;91.80
55634;DHT22;41504;53.162;6.788;2023-05-16T03:04:22;8.00;91.70
55634;DHT22;41504;53.162;6.788;2023-05-16T03:06:48;8.10;91.80
55634;DHT22;41504;53.162;6.788;2023-05-16T03:09:16;8.10;91.80
55634;DHT22;41504;53.162;6.788;2023-05-16T03:11:41;8.00;91.80
55634;DHT22;41504;53.162;6.788;2023-05-16T03:14:07;8.00;91.80
55634;DHT22;41504;53.162;6.788;2023-05-16T03:16:34;8.00;91.90
55634;DHT22;41504;53.162;6.788;2023-05-16T03:19:01;8.00;91.90
55634;DHT22;41504;53.162;6.788;2023-05-16T03:21:27;8.00;91.80
55634;DHT22;41504;53.162;6.788;2023-05-16T03:23:53;8.00;91.80
55634;DHT22;41504;53.162;6.788;2023-05-16T03:26:19;7.90;91.80
55634;DHT22;41504;53.162;6.788;2023-05-16T03:28:46;7.90;91.80
55634;DHT22;41504;53.162;6.788;2023-05-16T03:31:12;7.90;91.80
55634;DHT22;41504;53.162;6.788;2023-05-16T03:33:37;7.90;91.90
55634;DHT22;41504;53.162;6.788;2023-05-16T03:36:03;7.90;91.90
55634;DHT22;41504;53.162;6.788;2023-05-16T03:38:29;7.90;91.90
55634;DHT22;41504;53.162;6.788;2023-05-16T03:40:55;7.90;91.90
55634;DHT22;41504;53.162;6.788;2023-05-16T03:43:21;7.90;92.00
55634;DHT22;41504;53.162;6.788;2023-05-16T03:45:47;7.90;92.10
55634;DHT22;41504;53.162;6.788;2023-05-16T03:48:12;7.80;92.10
55634;DHT22;41504;53.162;6.788;2023-05-16T03:50:38;7.80;92.10
55634;DHT22;41504;53.162;6.788;2023-05-16T03:53:04;7.80;92.20
55634;DHT22;41504;53.162;6.788;2023-05-16T03:55:29;7.80;92.20
55634;DHT22;41504;53.162;6.788;2023-05-16T03:57:55;7.80;92.20
55634;DHT22;41504;53.162;6.788;2023-05-16T04:00:21;7.80;92.20
55634;DHT22;41504;53.162;6.788;2023-05-16T04:02:47;7.80;92.20
55634;DHT22;41504;53.162;6.788;2023-05-16T04:05:13;7.80;92.20
55634;DHT22;41504;53.162;6.788;2023-05-16T04:07:39;7.90;92.20
55634;DHT22;41504;53.162;6.788;2023-05-16T04:10:05;7.90;92.20
55634;DHT22;41504;53.162;6.788;2023-05-16T04:12:31;7.90;92.10
55634;DHT22;41504;53.162;6.788;2023-05-16T04:14:57;7.90;92.10
55634;DHT22;41504;53.162;6.788;2023-05-16T04:17:22;7.90;92.10
55634;DHT22;41504;53.162;6.788;2023-05-16T04:19:48;7.90;92.00
55634;DHT22;41504;53.162;6.788;2023-05-16T04:22:14;8.00;92.00
55634;DHT22;41504;53.162;6.788;2023-05-16T04:24:40;8.00;92.00
55634;DHT22;41504;53.162;6.788;2023-05-16T04:27:06;8.00;92.00
55634;DHT22;41504;53.162;6.788;2023-05-16T04:29:35;8.00;91.90
55634;DHT22;41504;53.162;6.788;2023-05-16T04:32:01;8.10;91.90
55634;DHT22;41504;53.162;6.788;2023-05-16T04:34:26;8.10;91.80
55634;DHT22;41504;53.162;6.788;2023-05-16T04:36:55;8.20;91.80
55634;DHT22;41504;53.162;6.788;2023-05-16T04:39:21;8.20;91.70
55634;DHT22;41504;53.162;6.788;2023-05-16T04:41:47;8.30;91.60
55634;DHT22;41504;53.162;6.788;2023-05-16T04:44:12;8.30;91.50
55634;DHT22;41504;53.162;6.788;2023-05-16T04:46:38;8.40;91.30
55634;DHT22;41504;53.162;6.788;2023-05-16T04:49:04;8.40;91.30
55634;DHT22;41504;53.162;6.788;2023-05-16T04:51:30;8.40;91.30
55634;DHT22;41504;53.162;6.788;2023-05-16T04:53:58;8.40;91.20
55634;DHT22;41504;53.162;6.788;2023-05-16T04:56:24;8.50;91.20
55634;DHT22;41504;53.162;6.788;2023-05-16T04:58:51;8.50;91.20
55634;DHT22;41504;53.162;6.788;2023-05-16T05:01:16;8.60;91.10
55634;DHT22;41504;53.162;6.788;2023-05-16T05:03:43;8.70;91.00
55634;DHT22;41504;53.162;6.788;2023-05-16T05:06:08;8.70;90.90
55634;DHT22;41504;53.162;6.788;2023-05-16T05:08:34;8.70;90.80
55634;DHT22;41504;53.162;6.788;2023-05-16T05:11:00;8.70;90.70
55634;DHT22;41504;53.162;6.788;2023-05-16T05:13:26;8.70;90.80
55634;DHT22;41504;53.162;6.788;2023-05-16T05:15:51;8.70;90.70
55634;DHT22;41504;53.162;6.788;2023-05-16T05:18:17;8.70;90.80
55634;DHT22;41504;53.162;6.788;2023-05-16T05:20:43;8.70;90.80
55634;DHT22;41504;53.162;6.788;2023-05-16T05:23:09;8.80;91.00
55634;DHT22;41504;53.162;6.788;2023-05-16T05:25:35;8.70;91.00
55634;DHT22;41504;53.162;6.788;2023-05-16T05:28:01;8.70;91.10
55634;DHT22;41504;53.162;6.788;2023-05-16T05:30:26;8.80;91.20
55634;DHT22;41504;53.162;6.788;2023-05-16T05:32:52;8.90;91.00
55634;DHT22;41504;53.162;6.788;2023-05-16T05:35:19;9.00;90.80
55634;DHT22;41504;53.162;6.788;2023-05-16T05:37:48;9.00;90.70
55634;DHT22;41504;53.162;6.788;2023-05-16T05:40:13;9.10;90.70
55634;DHT22;41504;53.162;6.788;2023-05-16T05:42:40;9.10;90.70
55634;DHT22;41504;53.162;6.788;2023-05-16T05:45:06;9.10;90.60
55634;DHT22;41504;53.162;6.788;2023-05-16T05:47:32;9.10;90.40
55634;DHT22;41504;53.162;6.788;2023-05-16T05:49:58;9.20;90.40
55634;DHT22;41504;53.162;6.788;2023-05-16T05:52:24;9.20;90.20
55634;DHT22;41504;53.162;6.788;2023-05-16T05:54:50;9.20;90.30
55634;DHT22;41504;53.162;6.788;2023-05-16T05:57:15;9.40;90.40
55634;DHT22;41504;53.162;6.788;2023-05-16T05:59:41;9.40;90.30
55634;DHT22;41504;53.162;6.788;2023-05-16T06:02:07;9.50;90.00
55634;DHT22;41504;53.162;6.788;2023-05-16T06:04:32;9.60;89.80
55634;DHT22;41504;53.162;6.788;2023-05-16T06:06:58;9.70;89.30
55634;DHT22;41504;53.162;6.788;2023-05-16T06:09:24;9.80;89.50
55634;DHT22;41504;53.162;6.788;2023-05-16T06:11:49;9.80;88.90
55634;DHT22;41504;53.162;6.788;2023-05-16T06:14:15;9.90;88.00
55634;DHT22;41504;53.162;6.788;2023-05-16T06:16:41;9.90;87.10
55634;DHT22;41504;53.162;6.788;2023-05-16T06:19:07;10.00;87.10
55634;DHT22;41504;53.162;6.788;2023-05-16T06:21:33;10.10;87.40
55634;DHT22;41504;53.162;6.788;2023-05-16T06:23:58;10.20;86.00
55634;DHT22;41504;53.162;6.788;2023-05-16T06:26:24;10.20;84.60
55634;DHT22;41504;53.162;6.788;2023-05-16T06:28:50;10.30;83.60
55634;DHT22;41504;53.162;6.788;2023-05-16T06:31:16;10.30;83.60
55634;DHT22;41504;53.162;6.788;2023-05-16T06:33:41;10.40;83.50
55634;DHT22;41504;53.162;6.788;2023-05-16T06:36:07;10.40;83.40
55634;DHT22;41504;53.162;6.788;2023-05-16T06:38:33;10.40;83.10
55634;DHT22;41504;53.162;6.788;2023-05-16T06:40:58;10.50;83.70
55634;DHT22;41504;53.162;6.788;2023-05-16T06:43:24;10.50;82.90
55634;DHT22;41504;53.162;6.788;2023-05-16T06:45:50;10.70;81.70
55634;DHT22;41504;53.162;6.788;2023-05-16T06:48:17;10.80;81.30
55634;DHT22;41504;53.162;6.788;2023-05-16T06:50:47;10.80;78.50
55634;DHT22;41504;53.162;6.788;2023-05-16T06:53:13;10.80;79.60
55634;DHT22;41504;53.162;6.788;2023-05-16T06:55:38;10.80;80.10
55634;DHT22;41504;53.162;6.788;2023-05-16T06:58:04;10.80;79.80
55634;DHT22;41504;53.162;6.788;2023-05-16T07:00:30;10.80;80.90
55634;DHT22;41504;53.162;6.788;2023-05-16T07:02:56;10.80;80.40
55634;DHT22;41504;53.162;6.788;2023-05-16T07:05:22;10.80;80.90
55634;DHT22;41504;53.162;6.788;2023-05-16T07:07:47;10.90;79.90
55634;DHT22;41504;53.162;6.788;2023-05-16T07:10:14;10.90;79.30
55634;DHT22;41504;53.162;6.788;2023-05-16T07:12:43;11.00;79.40
55634;DHT22;41504;53.162;6.788;2023-05-16T07:15:09;11.10;78.20
55634;DHT22;41504;53.162;6.788;2023-05-16T07:17:35;11.20;78.30
55634;DHT22;41504;53.162;6.788;2023-05-16T07:20:01;11.20;77.30
55634;DHT22;41504;53.162;6.788;2023-05-16T07:22:27;11.20;73.50
55634;DHT22;41504;53.162;6.788;2023-05-16T07:24:53;11.00;73.40
55634;DHT22;41504;53.162;6.788;2023-05-16T07:27:21;11.00;73.40
55634;DHT22;41504;53.162;6.788;2023-05-16T07:29:47;11.00;72.80
55634;DHT22;41504;53.162;6.788;2023-05-16T07:32:13;10.90;74.30
55634;DHT22;41504;53.162;6.788;2023-05-16T07:34:39;11.00;75.20
55634;DHT22;41504;53.162;6.788;2023-05-16T07:37:05;11.10;74.90
55634;DHT22;41504;53.162;6.788;2023-05-16T07:39:38;11.30;74.20
55634;DHT22;41504;53.162;6.788;2023-05-16T07:42:05;11.40;72.00
55634;DHT22;41504;53.162;6.788;2023-05-16T07:44:30;11.50;71.80
55634;DHT22;41504;53.162;6.788;2023-05-16T07:46:56;11.50;72.40
55634;DHT22;41504;53.162;6.788;2023-05-16T07:49:22;11.60;72.20
55634;DHT22;41504;53.162;6.788;2023-05-16T07:51:47;11.70;73.10
55634;DHT22;41504;53.162;6.788;2023-05-16T07:54:13;11.40;73.40
55634;DHT22;41504;53.162;6.788;2023-05-16T07:56:39;11.40;73.40
55634;DHT22;41504;53.162;6.788;2023-05-16T07:59:05;11.40;74.10
55634;DHT22;41504;53.162;6.788;2023-05-16T08:01:30;11.50;74.80
55634;DHT22;41504;53.162;6.788;2023-05-16T08:03:56;11.50;72.50
55634;DHT22;41504;53.162;6.788;2023-05-16T08:06:22;11.60;70.90
55634;DHT22;41504;53.162;6.788;2023-05-16T08:08:47;11.50;71.40
55634;DHT22;41504;53.162;6.788;2023-05-16T08:11:13;11.50;71.90
55634;DHT22;41504;53.162;6.788;2023-05-16T08:13:39;11.70;71.10
55634;DHT22;41504;53.162;6.788;2023-05-16T08:16:05;11.80;70.70
55634;DHT22;41504;53.162;6.788;2023-05-16T08:18:31;11.90;68.00
55634;DHT22;41504;53.162;6.788;2023-05-16T08:20:57;11.90;68.80
55634;DHT22;41504;53.162;6.788;2023-05-16T08:23:22;11.90;68.90
55634;DHT22;41504;53.162;6.788;2023-05-16T08:25:48;12.00;69.90
55634;DHT22;41504;53.162;6.788;2023-05-16T08:28:14;12.00;69.50
55634;DHT22;41504;53.162;6.788;2023-05-16T08:30:39;11.80;69.20
55634;DHT22;41504;53.162;6.788;2023-05-16T08:33:05;11.70;70.50
55634;DHT22;41504;53.162;6.788;2023-05-16T08:35:32;11.60;71.00
55634;DHT22;41504;53.162;6.788;2023-05-16T08:37:59;11.70;70.70
55634;DHT22;41504;53.162;6.788;2023-05-16T08:40:25;11.70;70.70
55634;DHT22;41504;53.162;6.788;2023-05-16T08:42:51;11.80;69.80
55634;DHT22;41504;53.162;6.788;2023-05-16T08:45:18;11.80;70.40
55634;DHT22;41504;53.162;6.788;2023-05-16T08:47:44;11.70;68.80
55634;DHT22;41504;53.162;6.788;2023-05-16T08:50:13;11.60;70.00
55634;DHT22;41504;53.162;6.788;2023-05-16T08:52:41;11.60;69.30
55634;DHT22;41504;53.162;6.788;2023-05-16T08:55:08;11.60;70.00
55634;DHT22;41504;53.162;6.788;2023-05-16T08:57:34;11.80;69.50
55634;DHT22;41504;53.162;6.788;2023-05-16T09:00:01;11.90;69.20
55634;DHT22;41504;53.162;6.788;2023-05-16T09:02:39;12.10;69.70
55634;DHT22;41504;53.162;6.788;2023-05-16T09:05:07;12.40;69.00
55634;DHT22;41504;53.162;6.788;2023-05-16T09:07:34;12.40;67.70
55634;DHT22;41504;53.162;6.788;2023-05-16T09:09:59;12.40;68.60
55634;DHT22;41504;53.162;6.788;2023-05-16T09:12:25;12.30;68.90
55634;DHT22;41504;53.162;6.788;2023-05-16T09:14:51;12.10;69.80
55634;DHT22;41504;53.162;6.788;2023-05-16T09:17:18;12.10;71.00
55634;DHT22;41504;53.162;6.788;2023-05-16T09:19:44;12.10;70.90
55634;DHT22;41504;53.162;6.788;2023-05-16T09:22:14;12.00;71.40
55634;DHT22;41504;53.162;6.788;2023-05-16T09:24:41;11.90;72.10
55634;DHT22;41504;53.162;6.788;2023-05-16T09:27:11;12.00;72.00
55634;DHT22;41504;53.162;6.788;2023-05-16T09:29:45;12.10;71.30
55634;DHT22;41504;53.162;6.788;2023-05-16T09:32:15;12.10;71.80
55634;DHT22;41504;53.162;6.788;2023-05-16T09:34:46;12.00;74.30
55634;DHT22;41504;53.162;6.788;2023-05-16T09:37:14;11.70;76.60
55634;DHT22;41504;53.162;6.788;2023-05-16T09:39:51;11.40;75.80
55634;DHT22;41504;53.162;6.788;2023-05-16T09:42:18;11.30;75.60
55634;DHT22;41504;53.162;6.788;2023-05-16T09:44:53;11.20;76.80
55634;DHT22;41504;53.162;6.788;2023-05-16T09:47:21;11.40;75.70
55634;DHT22;41504;53.162;6.788;2023-05-16T09:49:51;11.50;76.20
55634;DHT22;41504;53.162;6.788;2023-05-16T09:52:17;11.50;75.70
55634;DHT22;41504;53.162;6.788;2023-05-16T09:54:45;11.30;76.30
55634;DHT22;41504;53.162;6.788;2023-05-16T09:57:19;11.20;76.20
55634;DHT22;41504;53.162;6.788;2023-05-16T09:59:46;11.10;74.10
55634;DHT22;41504;53.162;6.788;2023-05-16T10:02:12;11.00;73.20
55634;DHT22;41504;53.162;6.788;2023-05-16T10:04:38;11.10;75.10
55634;DHT22;41504;53.162;6.788;2023-05-16T10:07:04;11.30;75.00
55634;DHT22;41504;53.162;6.788;2023-05-16T10:09:32;11.60;74.80
55634;DHT22;41504;53.162;6.788;2023-05-16T10:12:01;11.80;73.70
55634;DHT22;41504;53.162;6.788;2023-05-16T10:14:29;11.70;76.10
55634;DHT22;41504;53.162;6.788;2023-05-16T10:16:58;11.60;77.20
55634;DHT22;41504;53.162;6.788;2023-05-16T10:19:25;11.50;77.50
55634;DHT22;41504;53.162;6.788;2023-05-16T10:21:55;11.50;78.80
55634;DHT22;41504;53.162;6.788;2023-05-16T10:24:30;11.50;77.40
55634;DHT22;41504;53.162;6.788;2023-05-16T10:26:58;11.40;78.00
55634;DHT22;41504;53.162;6.788;2023-05-16T10:29:24;11.50;79.50
55634;DHT22;41504;53.162;6.788;2023-05-16T10:31:51;11.70;79.00
55634;DHT22;41504;53.162;6.788;2023-05-16T10:34:17;12.00;79.90
55634;DHT22;41504;53.162;6.788;2023-05-16T10:36:44;12.10;74.20
55634;DHT22;41504;53.162;6.788;2023-05-16T10:39:11;11.80;76.20
55634;DHT22;41504;53.162;6.788;2023-05-16T10:41:37;10.90;79.10
55634;DHT22;41504;53.162;6.788;2023-05-16T10:44:08;10.10;81.70
55634;DHT22;41504;53.162;6.788;2023-05-16T10:46:37;9.70;83.00
55634;DHT22;41504;53.162;6.788;2023-05-16T10:49:22;9.50;82.30
55634;DHT22;41504;53.162;6.788;2023-05-16T10:52:10;9.50;83.60
55634;DHT22;41504;53.162;6.788;2023-05-16T10:54:41;9.70;86.20
55634;DHT22;41504;53.162;6.788;2023-05-16T10:57:15;9.90;83.60
55634;DHT22;41504;53.162;6.788;2023-05-16T10:59:46;10.30;83.20
55634;DHT22;41504;53.162;6.788;2023-05-16T11:04:56;11.00;82.30
55634;DHT22;41504;53.162;6.788;2023-05-16T11:07:25;11.20;82.70
55634;DHT22;41504;53.162;6.788;2023-05-16T11:10:08;11.40;81.40
55634;DHT22;41504;53.162;6.788;2023-05-16T11:12:41;11.50;81.60
55634;DHT22;41504;53.162;6.788;2023-05-16T11:15:25;11.60;78.30
55634;DHT22;41504;53.162;6.788;2023-05-16T11:18:06;11.80;75.70
55634;DHT22;41504;53.162;6.788;2023-05-16T11:20:36;11.90;75.30
55634;DHT22;41504;53.162;6.788;2023-05-16T11:26:02;12.10;73.00
55634;DHT22;41504;53.162;6.788;2023-05-16T11:28:28;11.90;70.90
55634;DHT22;41504;53.162;6.788;2023-05-16T11:30:57;11.90;73.00
55634;DHT22;41504;53.162;6.788;2023-05-16T11:33:24;12.10;74.90
55634;DHT22;41504;53.162;6.788;2023-05-16T11:36:04;12.30;74.10
55634;DHT22;41504;53.162;6.788;2023-05-16T11:38:31;12.40;72.20
55634;DHT22;41504;53.162;6.788;2023-05-16T11:41:04;12.60;71.70
55634;DHT22;41504;53.162;6.788;2023-05-16T11:43:41;12.80;70.00
55634;DHT22;41504;53.162;6.788;2023-05-16T11:46:14;13.00;67.30
55634;DHT22;41504;53.162;6.788;2023-05-16T11:48:41;12.90;69.20
55634;DHT22;41504;53.162;6.788;2023-05-16T11:51:08;13.10;69.70
55634;DHT22;41504;53.162;6.788;2023-05-16T11:53:34;13.20;70.20
55634;DHT22;41504;53.162;6.788;2023-05-16T11:56:01;13.40;65.70
55634;DHT22;41504;53.162;6.788;2023-05-16T11:58:28;13.50;66.00
55634;DHT22;41504;53.162;6.788;2023-05-16T12:00:53;13.50;65.40
55634;DHT22;41504;53.162;6.788;2023-05-16T12:03:20;13.50;67.10
55634;DHT22;41504;53.162;6.788;2023-05-16T12:05:55;13.60;67.20
55634;DHT22;41504;53.162;6.788;2023-05-16T12:08:22;13.50;66.80
55634;DHT22;41504;53.162;6.788;2023-05-16T12:10:50;13.30;66.10
55634;DHT22;41504;53.162;6.788;2023-05-16T12:13:18;13.20;67.00
55634;DHT22;41504;53.162;6.788;2023-05-16T12:15:44;13.20;68.70
55634;DHT22;41504;53.162;6.788;2023-05-16T12:18:10;13.40;67.50
55634;DHT22;41504;53.162;6.788;2023-05-16T12:20:36;13.50;66.60
55634;DHT22;41504;53.162;6.788;2023-05-16T12:23:02;13.60;66.30
55634;DHT22;41504;53.162;6.788;2023-05-16T12:25:30;13.60;65.30
55634;DHT22;41504;53.162;6.788;2023-05-16T12:27:58;13.70;65.70
55634;DHT22;41504;53.162;6.788;2023-05-16T12:30:26;13.50;64.60
55634;DHT22;41504;53.162;6.788;2023-05-16T12:32:55;13.40;65.60
55634;DHT22;41504;53.162;6.788;2023-05-16T12:35:21;13.30;66.20
55634;DHT22;41504;53.162;6.788;2023-05-16T12:37:48;13.10;67.00
55634;DHT22;41504;53.162;6.788;2023-05-16T12:40:15;13.10;68.10
55634;DHT22;41504;53.162;6.788;2023-05-16T12:42:43;13.10;69.10
55634;DHT22;41504;53.162;6.788;2023-05-16T12:45:16;13.10;67.30
55634;DHT22;41504;53.162;6.788;2023-05-16T12:47:42;13.00;67.80
55634;DHT22;41504;53.162;6.788;2023-05-16T12:50:11;13.00;68.70
55634;DHT22;41504;53.162;6.788;2023-05-16T12:52:52;13.00;67.80
55634;DHT22;41504;53.162;6.788;2023-05-16T12:55:20;13.00;68.40
55634;DHT22;41504;53.162;6.788;2023-05-16T12:57:47;13.00;68.20
55634;DHT22;41504;53.162;6.788;2023-05-16T13:00:15;13.00;71.00
55634;DHT22;41504;53.162;6.788;2023-05-16T13:02:43;13.00;71.00
55634;DHT22;41504;53.162;6.788;2023-05-16T13:05:09;12.90;70.90
55634;DHT22;41504;53.162;6.788;2023-05-16T13:07:35;12.80;71.50
55634;DHT22;41504;53.162;6.788;2023-05-16T13:10:01;12.70;72.30
55634;DHT22;41504;53.162;6.788;2023-05-16T13:12:28;12.60;72.90
55634;DHT22;41504;53.162;6.788;2023-05-16T13:14:54;12.40;75.60
55634;DHT22;41504;53.162;6.788;2023-05-16T13:17:21;12.20;76.70
55634;DHT22;41504;53.162;6.788;2023-05-16T13:19:48;12.20;77.10
55634;DHT22;41504;53.162;6.788;2023-05-16T13:22:14;12.30;75.20
55634;DHT22;41504;53.162;6.788;2023-05-16T13:24:40;12.50;72.70
55634;DHT22;41504;53.162;6.788;2023-05-16T13:27:06;12.70;72.10
55634;DHT22;41504;53.162;6.788;2023-05-16T13:29:31;12.90;70.40
55634;DHT22;41504;53.162;6.788;2023-05-16T13:31:57;13.10;70.10
55634;DHT22;41504;53.162;6.788;2023-05-16T13:34:23;13.00;70.50
55634;DHT22;41504;53.162;6.788;2023-05-16T13:36:49;12.90;69.70
55634;DHT22;41504;53.162;6.788;2023-05-16T13:39:14;12.80;69.40
55634;DHT22;41504;53.162;6.788;2023-05-16T13:41:40;12.80;70.10
55634;DHT22;41504;53.162;6.788;2023-05-16T13:44:06;12.70;69.00
55634;DHT22;41504;53.162;6.788;2023-05-16T13:46:32;12.50;70.10
55634;DHT22;41504;53.162;6.788;2023-05-16T13:48:58;12.30;71.00
55634;DHT22;41504;53.162;6.788;2023-05-16T13:51:24;12.30;71.30
55634;DHT22;41504;53.162;6.788;2023-05-16T13:53:50;12.40;68.10
55634;DHT22;41504;53.162;6.788;2023-05-16T13:56:16;12.40;67.90
55634;DHT22;41504;53.162;6.788;2023-05-16T13:58:42;12.50;68.80
55634;DHT22;41504;53.162;6.788;2023-05-16T14:01:08;12.80;68.70
55634;DHT22;41504;53.162;6.788;2023-05-16T14:03:33;13.00;67.20
55634;DHT22;41504;53.162;6.788;2023-05-16T14:06:01;13.00;66.40
55634;DHT22;41504;53.162;6.788;2023-05-16T14:08:27;13.00;67.40
55634;DHT22;41504;53.162;6.788;2023-05-16T14:10:53;13.00;68.50
55634;DHT22;41504;53.162;6.788;2023-05-16T14:13:19;13.00;68.60
55634;DHT22;41504;53.162;6.788;2023-05-16T14:15:45;13.00;67.40
55634;DHT22;41504;53.162;6.788;2023-05-16T14:18:11;13.10;67.60
55634;DHT22;41504;53.162;6.788;2023-05-16T14:20:37;13.10;67.80
55634;DHT22;41504;53.162;6.788;2023-05-16T14:23:03;13.20;67.40
55634;DHT22;41504;53.162;6.788;2023-05-16T14:25:29;13.30;66.90
55634;DHT22;41504;53.162;6.788;2023-05-16T14:27:54;13.30;67.10
55634;DHT22;41504;53.162;6.788;2023-05-16T14:30:20;13.30;66.90
55634;DHT22;41504;53.162;6.788;2023-05-16T14:32:46;13.30;65.50
55634;DHT22;41504;53.162;6.788;2023-05-16T14:35:12;13.10;65.00
55634;DHT22;41504;53.162;6.788;2023-05-16T14:37:38;13.00;66.00
55634;DHT22;41504;53.162;6.788;2023-05-16T14:40:04;12.70;67.60
55634;DHT22;41504;53.162;6.788;2023-05-16T14:42:30;12.70;69.40
55634;DHT22;41504;53.162;6.788;2023-05-16T14:44:56;12.60;70.20
55634;DHT22;41504;53.162;6.788;2023-05-16T14:47:22;12.40;72.30
55634;DHT22;41504;53.162;6.788;2023-05-16T14:49:48;12.20;72.80
55634;DHT22;41504;53.162;6.788;2023-05-16T14:52:14;12.00;73.90
55634;DHT22;41504;53.162;6.788;2023-05-16T14:54:40;11.90;72.80
55634;DHT22;41504;53.162;6.788;2023-05-16T14:57:05;11.80;73.20
55634;DHT22;41504;53.162;6.788;2023-05-16T14:59:31;11.80;74.10
55634;DHT22;41504;53.162;6.788;2023-05-16T15:01:57;11.80;75.30
55634;DHT22;41504;53.162;6.788;2023-05-16T15:04:24;11.90;76.00
55634;DHT22;41504;53.162;6.788;2023-05-16T15:06:50;11.90;75.80
55634;DHT22;41504;53.162;6.788;2023-05-16T15:09:16;12.00;75.80
55634;DHT22;41504;53.162;6.788;2023-05-16T15:11:43;12.00;75.40
55634;DHT22;41504;53.162;6.788;2023-05-16T15:14:09;12.10;75.40
55634;DHT22;41504;53.162;6.788;2023-05-16T15:16:35;12.10;74.60
55634;DHT22;41504;53.162;6.788;2023-05-16T15:19:12;12.10;74.40
55634;DHT22;41504;53.162;6.788;2023-05-16T15:21:38;12.10;74.50
55634;DHT22;41504;53.162;6.788;2023-05-16T15:24:07;12.20;74.10
55634;DHT22;41504;53.162;6.788;2023-05-16T15:26:33;12.30;74.10
55634;DHT22;41504;53.162;6.788;2023-05-16T15:28:59;12.50;73.50
55634;DHT22;41504;53.162;6.788;2023-05-16T15:31:25;12.60;74.10
55634;DHT22;41504;53.162;6.788;2023-05-16T15:33:57;12.70;72.10
55634;DHT22;41504;53.162;6.788;2023-05-16T15:36:23;12.70;70.70
55634;DHT22;41504;53.162;6.788;2023-05-16T15:38:48;12.80;70.50
55634;DHT22;41504;53.162;6.788;2023-05-16T15:41:18;12.90;68.60
55634;DHT22;41504;53.162;6.788;2023-05-16T15:43:50;12.80;69.40
55634;DHT22;41504;53.162;6.788;2023-05-16T15:46:16;12.80;69.90
55634;DHT22;41504;53.162;6.788;2023-05-16T15:48:42;12.70;70.00
55634;DHT22;41504;53.162;6.788;2023-05-16T15:51:15;12.70;69.00
55634;DHT22;41504;53.162;6.788;2023-05-16T15:53:44;12.60;69.70
55634;DHT22;41504;53.162;6.788;2023-05-16T15:56:15;12.40;69.50